sensor_id;sensor_type;location;lat;lon;timestamp;pressure;altitude;pressure_sealevel;temperature;humidity
20755;BME280;26385;48.470;7.938;2022-11-15T00:00:31;99671.66;;;11.44;86.08
20755;BME280;26385;48.470;7.938;2022-11-15T00:02:57;99665.59;;;11.43;85.77
20755;BME280;26385;48.470;7.938;2022-11-15T00:05:22;99661.31;;;11.45;85.90
20755;BME280;26385;48.470;7.938;2022-11-15T00:07:47;99664.78;;;11.49;85.96
20755;BME280;26385;48.470;7.938;2022-11-15T00:10:13;99663.09;;;11.52;85.02
20755;BME280;26385;48.470;7.938;2022-11-15T00:12:38;99652.81;;;11.63;84.51
20755;BME280;26385;48.470;7.938;2022-11-15T00:15:04;99657.94;;;11.59;85.20
20755;BME280;26385;48.470;7.938;2022-11-15T00:17:29;99652.88;;;11.72;85.11
20755;BME280;26385;48.470;7.938;2022-11-15T00:19:55;99652.81;;;11.68;84.99
20755;BME280;26385;48.470;7.938;2022-11-15T00:22:20;99646.78;;;11.67;85.34
20755;BME280;26385;48.470;7.938;2022-11-15T00:24:45;99643.41;;;11.77;84.25
20755;BME280;26385;48.470;7.938;2022-11-15T00:27:11;99641.75;;;11.84;83.51
20755;BME280;26385;48.470;7.938;2022-11-15T00:29:36;99634.81;;;11.80;84.46
20755;BME280;26385;48.470;7.938;2022-11-15T00:32:04;99639.94;;;11.77;84.05
20755;BME280;26385;48.470;7.938;2022-11-15T00:34:29;99635.69;;;11.82;84.33
20755;BME280;26385;48.470;7.938;2022-11-15T00:36:54;99636.56;;;11.82;84.32
20755;BME280;26385;48.470;7.938;2022-11-15T00:39:19;99632.28;;;11.88;83.07
20755;BME280;26385;48.470;7.938;2022-11-15T00:41:45;99632.28;;;11.89;83.56
20755;BME280;26385;48.470;7.938;2022-11-15T00:44:10;99626.19;;;11.84;83.93
20755;BME280;26385;48.470;7.938;2022-11-15T00:46:35;99631.31;;;11.79;83.98
20755;BME280;26385;48.470;7.938;2022-11-15T00:49:00;99626.13;;;11.79;84.27
20755;BME280;26385;48.470;7.938;2022-11-15T00:51:26;99627.03;;;11.83;83.83
20755;BME280;26385;48.470;7.938;2022-11-15T00:53:51;99629.69;;;11.91;84.48
20755;BME280;26385;48.470;7.938;2022-11-15T00:56:16;99625.31;;;11.83;83.79
20755;BME280;26385;48.470;7.938;2022-11-15T00:58:41;99618.50;;;11.98;83.74
20755;BME280;26385;48.470;7.938;2022-11-15T01:01:09;99618.44;;;11.93;83.93
20755;BME280;26385;48.470;7.938;2022-11-15T01:03:35;99622.75;;;11.88;83.52
20755;BME280;26385;48.470;7.938;2022-11-15T01:06:01;99608.09;;;11.95;83.59
20755;BME280;26385;48.470;7.938;2022-11-15T01:08:26;99617.56;;;11.87;83.88
20755;BME280;26385;48.470;7.938;2022-11-15T01:10:51;99612.34;;;11.82;83.82
20755;BME280;26385;48.470;7.938;2022-11-15T01:13:17;99609.78;;;11.90;83.37
20755;BME280;26385;48.470;7.938;2022-11-15T01:15:42;99602.06;;;11.94;83.71
20755;BME280;26385;48.470;7.938;2022-11-15T01:18:07;99605.47;;;11.93;83.31
20755;BME280;26385;48.470;7.938;2022-11-15T01:20:33;99606.31;;;11.88;84.09
20755;BME280;26385;48.470;7.938;2022-11-15T01:22:58;99600.31;;;11.98;84.34
20755;BME280;26385;48.470;7.938;2022-11-15T01:25:23;99606.38;;;12.00;82.77
20755;BME280;26385;48.470;7.938;2022-11-15T01:27:49;99597.78;;;12.04;82.81
20755;BME280;26385;48.470;7.938;2022-11-15T01:30:14;99602.13;;;12.09;83.38
20755;BME280;26385;48.470;7.938;2022-11-15T01:32:39;99590.91;;;12.12;82.94
20755;BME280;26385;48.470;7.938;2022-11-15T01:35:05;99588.28;;;12.09;83.32
20755;BME280;26385;48.470;7.938;2022-11-15T01:37:30;99583.03;;;11.98;84.13
20755;BME280;26385;48.470;7.938;2022-11-15T01:39:55;99586.50;;;11.97;84.20
20755;BME280;26385;48.470;7.938;2022-11-15T01:42:21;99585.63;;;11.98;83.96
20755;BME280;26385;48.470;7.938;2022-11-15T01:44:47;99581.13;;;11.74;85.75
20755;BME280;26385;48.470;7.938;2022-11-15T01:47:26;99573.28;;;11.67;85.73
20755;BME280;26385;48.470;7.938;2022-11-15T01:50:05;99578.44;;;11.62;85.96
20755;BME280;26385;48.470;7.938;2022-11-15T01:52:32;99576.78;;;11.75;85.34
20755;BME280;26385;48.470;7.938;2022-11-15T01:55:16;99569.88;;;11.77;85.31
20755;BME280;26385;48.470;7.938;2022-11-15T01:57:45;99568.19;;;11.79;85.06
20755;BME280;26385;48.470;7.938;2022-11-15T02:00:12;99569.88;;;11.75;84.94
20755;BME280;26385;48.470;7.938;2022-11-15T02:02:38;99565.50;;;11.68;85.18
20755;BME280;26385;48.470;7.938;2022-11-15T02:05:04;99563.69;;;11.53;85.26
20755;BME280;26385;48.470;7.938;2022-11-15T02:07:30;99572.31;;;11.51;86.23
20755;BME280;26385;48.470;7.938;2022-11-15T02:10:01;99561.91;;;11.49;86.33
20755;BME280;26385;48.470;7.938;2022-11-15T02:12:27;99561.09;;;11.55;85.39
20755;BME280;26385;48.470;7.938;2022-11-15T02:14:54;99573.09;;;11.41;86.15
20755;BME280;26385;48.470;7.938;2022-11-15T02:31:28;99561.06;;;11.50;86.03
20755;BME280;26385;48.470;7.938;2022-11-15T02:34:19;99551.47;;;11.40;86.43
20755;BME280;26385;48.470;7.938;2022-11-15T02:39:43;99550.63;;;11.38;86.78
20755;BME280;26385;48.470;7.938;2022-11-15T02:42:19;99540.25;;;11.38;86.46
20755;BME280;26385;48.470;7.938;2022-11-15T02:45:07;99529.03;;;11.42;86.83
20755;BME280;26385;48.470;7.938;2022-11-15T02:47:43;99521.31;;;11.51;85.44
20755;BME280;26385;48.470;7.938;2022-11-15T02:50:12;99523.97;;;11.61;85.19
20755;BME280;26385;48.470;7.938;2022-11-15T02:52:40;99525.69;;;11.59;84.97
20755;BME280;26385;48.470;7.938;2022-11-15T02:55:25;99518.75;;;11.53;84.46
20755;BME280;26385;48.470;7.938;2022-11-15T02:58:00;99517.13;;;11.69;84.92
20755;BME280;26385;48.470;7.938;2022-11-15T03:00:34;99517.97;;;11.72;84.19
20755;BME280;26385;48.470;7.938;2022-11-15T03:08:08;99502.44;;;11.75;83.53
20755;BME280;26385;48.470;7.938;2022-11-15T03:13:27;99508.47;;;11.76;84.02
20755;BME280;26385;48.470;7.938;2022-11-15T03:18:42;99512.78;;;11.69;84.71
20755;BME280;26385;48.470;7.938;2022-11-15T03:21:11;99509.34;;;11.70;83.96
20755;BME280;26385;48.470;7.938;2022-11-15T03:23:38;99511.00;;;11.61;84.95
20755;BME280;26385;48.470;7.938;2022-11-15T03:26:07;99516.16;;;11.54;85.00
20755;BME280;26385;48.470;7.938;2022-11-15T03:28:38;99510.91;;;11.47;85.87
20755;BME280;26385;48.470;7.938;2022-11-15T03:31:06;99519.63;;;11.55;85.11
20755;BME280;26385;48.470;7.938;2022-11-15T03:33:54;99518.69;;;11.50;85.62
20755;BME280;26385;48.470;7.938;2022-11-15T03:36:22;99520.47;;;11.55;85.05
20755;BME280;26385;48.470;7.938;2022-11-15T03:38:48;99522.16;;;11.50;85.92
20755;BME280;26385;48.470;7.938;2022-11-15T03:44:20;99513.50;;;11.47;85.77
20755;BME280;26385;48.470;7.938;2022-11-15T03:47:06;99515.28;;;11.52;86.07
20755;BME280;26385;48.470;7.938;2022-11-15T03:49:35;99515.25;;;11.51;86.11
20755;BME280;26385;48.470;7.938;2022-11-15T03:52:02;99517.00;;;11.53;86.39
20755;BME280;26385;48.470;7.938;2022-11-15T03:54:29;99505.72;;;11.44;86.67
20755;BME280;26385;48.470;7.938;2022-11-15T03:56:54;99515.28;;;11.55;85.87
20755;BME280;26385;48.470;7.938;2022-11-15T03:59:20;99508.31;;;11.48;85.46
20755;BME280;26385;48.470;7.938;2022-11-15T04:01:45;99504.91;;;11.55;85.94
20755;BME280;26385;48.470;7.938;2022-11-15T04:04:11;99508.41;;;11.61;85.02
20755;BME280;26385;48.470;7.938;2022-11-15T04:06:36;99504.94;;;11.60;85.64
20755;BME280;26385;48.470;7.938;2022-11-15T04:09:01;99504.97;;;11.65;85.23
20755;BME280;26385;48.470;7.938;2022-11-15T04:11:27;99498.97;;;11.70;84.80
20755;BME280;26385;48.470;7.938;2022-11-15T04:13:52;99496.28;;;11.56;85.83
20755;BME280;26385;48.470;7.938;2022-11-15T04:16:17;99496.38;;;11.69;84.09
20755;BME280;26385;48.470;7.938;2022-11-15T04:18:42;99505.00;;;11.74;84.40
20755;BME280;26385;48.470;7.938;2022-11-15T04:21:08;99499.84;;;11.77;84.73
20755;BME280;26385;48.470;7.938;2022-11-15T04:23:52;99495.53;;;11.79;84.42
20755;BME280;26385;48.470;7.938;2022-11-15T04:26:33;99496.41;;;11.78;84.28
20755;BME280;26385;48.470;7.938;2022-11-15T04:28:58;99500.78;;;11.83;84.38
20755;BME280;26385;48.470;7.938;2022-11-15T04:31:42;99492.19;;;12.01;83.55
20755;BME280;26385;48.470;7.938;2022-11-15T04:34:07;99480.09;;;11.94;83.79
20755;BME280;26385;48.470;7.938;2022-11-15T04:36:33;99486.09;;;11.93;83.87
20755;BME280;26385;48.470;7.938;2022-11-15T04:39:16;99481.78;;;11.86;84.70
20755;BME280;26385;48.470;7.938;2022-11-15T04:41:42;99484.38;;;11.89;84.27
20755;BME280;26385;48.470;7.938;2022-11-15T04:44:07;99479.19;;;11.92;84.30
20755;BME280;26385;48.470;7.938;2022-11-15T04:46:32;99474.06;;;12.09;82.98
20755;BME280;26385;48.470;7.938;2022-11-15T04:48:57;99472.34;;;12.06;82.91
20755;BME280;26385;48.470;7.938;2022-11-15T04:51:23;99478.34;;;12.01;84.05
20755;BME280;26385;48.470;7.938;2022-11-15T04:53:48;99485.31;;;12.05;83.87
20755;BME280;26385;48.470;7.938;2022-11-15T04:56:13;99479.22;;;12.01;84.65
20755;BME280;26385;48.470;7.938;2022-11-15T04:58:38;99486.97;;;11.92;84.69
20755;BME280;26385;48.470;7.938;2022-11-15T05:01:08;99480.06;;;11.93;84.68
20755;BME280;26385;48.470;7.938;2022-11-15T05:03:33;99482.66;;;11.88;85.42
20755;BME280;26385;48.470;7.938;2022-11-15T05:06:17;99486.97;;;11.88;85.17
20755;BME280;26385;48.470;7.938;2022-11-15T05:08:42;99485.25;;;11.90;85.35
20755;BME280;26385;48.470;7.938;2022-11-15T05:11:07;99473.19;;;12.02;85.05
20755;BME280;26385;48.470;7.938;2022-11-15T05:13:33;99480.09;;;11.99;85.40
20755;BME280;26385;48.470;7.938;2022-11-15T05:15:58;99481.78;;;11.94;85.61
20755;BME280;26385;48.470;7.938;2022-11-15T05:18:23;99476.59;;;11.88;87.21
20755;BME280;26385;48.470;7.938;2022-11-15T05:20:48;99474.91;;;11.97;85.96
20755;BME280;26385;48.470;7.938;2022-11-15T05:23:14;99485.25;;;11.91;86.56
20755;BME280;26385;48.470;7.938;2022-11-15T05:25:39;99477.41;;;11.82;86.94
20755;BME280;26385;48.470;7.938;2022-11-15T05:28:04;99475.78;;;12.02;90.42
20755;BME280;26385;48.470;7.938;2022-11-15T05:30:29;99457.69;;;12.19;88.08
20755;BME280;26385;48.470;7.938;2022-11-15T05:32:55;99462.91;;;12.40;89.22
20755;BME280;26385;48.470;7.938;2022-11-15T05:35:30;99461.16;;;12.33;85.25
20755;BME280;26385;48.470;7.938;2022-11-15T05:37:57;99471.53;;;12.32;86.08
20755;BME280;26385;48.470;7.938;2022-11-15T05:40:23;99459.41;;;12.25;85.03
20755;BME280;26385;48.470;7.938;2022-11-15T05:42:49;99460.28;;;12.21;85.38
20755;BME280;26385;48.470;7.938;2022-11-15T05:45:15;99458.53;;;12.20;85.36
20755;BME280;26385;48.470;7.938;2022-11-15T05:47:41;99456.75;;;12.09;85.44
20755;BME280;26385;48.470;7.938;2022-11-15T05:50:07;99458.50;;;12.18;84.49
20755;BME280;26385;48.470;7.938;2022-11-15T05:52:34;99460.25;;;12.15;85.28
20755;BME280;26385;48.470;7.938;2022-11-15T05:55:02;99456.72;;;11.97;86.45
20755;BME280;26385;48.470;7.938;2022-11-15T05:57:28;99458.50;;;12.03;85.92
20755;BME280;26385;48.470;7.938;2022-11-15T05:59:54;99459.28;;;11.88;86.98
20755;BME280;26385;48.470;7.938;2022-11-15T06:02:19;99457.56;;;11.90;87.48
20755;BME280;26385;48.470;7.938;2022-11-15T06:04:44;99454.06;;;11.82;86.85
20755;BME280;26385;48.470;7.938;2022-11-15T06:07:10;99459.25;;;11.85;86.94
20755;BME280;26385;48.470;7.938;2022-11-15T06:09:35;99454.09;;;11.87;86.98
20755;BME280;26385;48.470;7.938;2022-11-15T06:12:00;99443.69;;;11.83;87.36
20755;BME280;26385;48.470;7.938;2022-11-15T06:14:25;99446.28;;;11.85;86.49
20755;BME280;26385;48.470;7.938;2022-11-15T06:16:51;99448.03;;;11.80;87.24
20755;BME280;26385;48.470;7.938;2022-11-15T06:19:16;99448.84;;;11.77;87.51
20755;BME280;26385;48.470;7.938;2022-11-15T06:21:41;99442.00;;;11.87;85.35
20755;BME280;26385;48.470;7.938;2022-11-15T06:24:07;99436.75;;;11.79;86.17
20755;BME280;26385;48.470;7.938;2022-11-15T06:26:32;99441.09;;;11.83;86.01
20755;BME280;26385;48.470;7.938;2022-11-15T06:28:58;99438.50;;;11.85;85.67
20755;BME280;26385;48.470;7.938;2022-11-15T06:31:23;99440.13;;;11.68;86.91
20755;BME280;26385;48.470;7.938;2022-11-15T06:33:48;99449.69;;;11.70;86.85
20755;BME280;26385;48.470;7.938;2022-11-15T06:36:14;99442.81;;;11.83;86.26
20755;BME280;26385;48.470;7.938;2022-11-15T06:38:42;99449.63;;;11.66;87.13
20755;BME280;26385;48.470;7.938;2022-11-15T06:41:09;99450.44;;;11.52;87.95
20755;BME280;26385;48.470;7.938;2022-11-15T06:43:35;99448.72;;;11.53;87.91
20755;BME280;26385;48.470;7.938;2022-11-15T06:46:02;99451.31;;;11.56;87.37
20755;BME280;26385;48.470;7.938;2022-11-15T06:48:29;99452.13;;;11.44;88.25
20755;BME280;26385;48.470;7.938;2022-11-15T06:50:57;99456.47;;;11.45;88.76
20755;BME280;26385;48.470;7.938;2022-11-15T06:53:24;99452.97;;;11.43;88.52
20755;BME280;26385;48.470;7.938;2022-11-15T06:55:49;99460.78;;;11.45;89.13
20755;BME280;26385;48.470;7.938;2022-11-15T06:58:15;99457.34;;;11.49;89.29
20755;BME280;26385;48.470;7.938;2022-11-15T07:00:40;99460.84;;;11.55;88.65
20755;BME280;26385;48.470;7.938;2022-11-15T07:03:06;99460.78;;;11.51;89.21
20755;BME280;26385;48.470;7.938;2022-11-15T07:05:31;99465.94;;;11.40;90.00
20755;BME280;26385;48.470;7.938;2022-11-15T07:07:57;99460.78;;;11.48;89.22
20755;BME280;26385;48.470;7.938;2022-11-15T07:10:24;99469.44;;;11.51;89.22
20755;BME280;26385;48.470;7.938;2022-11-15T07:12:53;99460.75;;;11.42;89.48
20755;BME280;26385;48.470;7.938;2022-11-15T07:15:20;99466.78;;;11.42;90.23
20755;BME280;26385;48.470;7.938;2022-11-15T07:17:45;99454.72;;;11.47;89.66
20755;BME280;26385;48.470;7.938;2022-11-15T07:20:11;99464.25;;;11.47;89.11
20755;BME280;26385;48.470;7.938;2022-11-15T07:22:38;99454.72;;;11.44;89.35
20755;BME280;26385;48.470;7.938;2022-11-15T07:25:04;99452.97;;;11.42;89.61
20755;BME280;26385;48.470;7.938;2022-11-15T07:27:30;99453.88;;;11.44;89.88
20755;BME280;26385;48.470;7.938;2022-11-15T07:29:55;99448.72;;;11.54;89.85
20755;BME280;26385;48.470;7.938;2022-11-15T07:32:20;99446.13;;;11.54;88.91
20755;BME280;26385;48.470;7.938;2022-11-15T07:34:46;99453.88;;;11.47;90.24
20755;BME280;26385;48.470;7.938;2022-11-15T07:37:11;99449.53;;;11.46;90.46
20755;BME280;26385;48.470;7.938;2022-11-15T07:39:36;99442.69;;;11.55;90.16
20755;BME280;26385;48.470;7.938;2022-11-15T07:42:01;99444.44;;;11.63;90.79
20755;BME280;26385;48.470;7.938;2022-11-15T07:44:45;99445.34;;;11.74;89.85
20755;BME280;26385;48.470;7.938;2022-11-15T07:47:11;99437.63;;;11.80;89.61
20755;BME280;26385;48.470;7.938;2022-11-15T07:49:36;99442.75;;;11.75;89.87
20755;BME280;26385;48.470;7.938;2022-11-15T07:52:01;99436.72;;;11.69;90.10
20755;BME280;26385;48.470;7.938;2022-11-15T07:54:26;99438.44;;;11.76;89.69
20755;BME280;26385;48.470;7.938;2022-11-15T07:56:52;99435.84;;;11.76;89.40
20755;BME280;26385;48.470;7.938;2022-11-15T07:59:17;99434.97;;;11.74;89.83
20755;BME280;26385;48.470;7.938;2022-11-15T08:01:42;99431.53;;;11.75;89.64
20755;BME280;26385;48.470;7.938;2022-11-15T08:04:10;99426.34;;;11.72;89.83
20755;BME280;26385;48.470;7.938;2022-11-15T08:06:36;99441.84;;;11.64;90.56
20755;BME280;26385;48.470;7.938;2022-11-15T08:09:01;99429.72;;;11.55;91.85
20755;BME280;26385;48.470;7.938;2022-11-15T08:11:27;99435.75;;;11.56;92.42
20755;BME280;26385;48.470;7.938;2022-11-15T08:13:52;99434.97;;;11.69;90.77
20755;BME280;26385;48.470;7.938;2022-11-15T08:16:17;99434.97;;;11.69;91.68
20755;BME280;26385;48.470;7.938;2022-11-15T08:18:42;99434.97;;;11.69;90.93
20755;BME280;26385;48.470;7.938;2022-11-15T08:21:09;99435.84;;;11.76;91.73
20755;BME280;26385;48.470;7.938;2022-11-15T08:23:34;99432.31;;;11.55;91.74
20755;BME280;26385;48.470;7.938;2022-11-15T08:26:01;99434.84;;;11.48;92.60
20755;BME280;26385;48.470;7.938;2022-11-15T08:28:27;99430.56;;;11.57;93.47
20755;BME280;26385;48.470;7.938;2022-11-15T08:30:53;99421.94;;;11.55;93.57
20755;BME280;26385;48.470;7.938;2022-11-15T08:33:18;99424.53;;;11.60;93.37
20755;BME280;26385;48.470;7.938;2022-11-15T08:35:44;99429.72;;;11.60;92.76
20755;BME280;26385;48.470;7.938;2022-11-15T08:38:09;99437.50;;;11.57;92.97
20755;BME280;26385;48.470;7.938;2022-11-15T08:40:36;99424.59;;;11.77;92.39
20755;BME280;26385;48.470;7.938;2022-11-15T08:43:01;99425.44;;;11.64;92.73
20755;BME280;26385;48.470;7.938;2022-11-15T08:45:28;99422.00;;;11.71;93.12
20755;BME280;26385;48.470;7.938;2022-11-15T08:47:54;99417.69;;;11.74;93.35
20755;BME280;26385;48.470;7.938;2022-11-15T08:50:19;99422.03;;;11.78;93.35
20755;BME280;26385;48.470;7.938;2022-11-15T08:52:44;99428.06;;;11.74;92.88
20755;BME280;26385;48.470;7.938;2022-11-15T08:55:10;99430.69;;;11.79;92.65
20755;BME280;26385;48.470;7.938;2022-11-15T08:57:35;99428.13;;;11.80;93.78
20755;BME280;26385;48.470;7.938;2022-11-15T09:00:01;99430.66;;;11.73;92.99
20755;BME280;26385;48.470;7.938;2022-11-15T09:02:26;99421.19;;;11.78;93.10
20755;BME280;26385;48.470;7.938;2022-11-15T09:04:51;99426.44;;;11.87;94.56
20755;BME280;26385;48.470;7.938;2022-11-15T09:07:17;99420.38;;;11.91;93.34
20755;BME280;26385;48.470;7.938;2022-11-15T09:09:42;99421.25;;;11.93;93.56
20755;BME280;26385;48.470;7.938;2022-11-15T09:12:08;99424.69;;;11.92;94.28
20755;BME280;26385;48.470;7.938;2022-11-15T09:14:34;99418.66;;;11.90;95.07
20755;BME280;26385;48.470;7.938;2022-11-15T09:16:59;99418.66;;;11.96;94.54
20755;BME280;26385;48.470;7.938;2022-11-15T09:19:24;99419.50;;;11.94;94.42
20755;BME280;26385;48.470;7.938;2022-11-15T09:21:50;99423.03;;;12.05;94.49
20755;BME280;26385;48.470;7.938;2022-11-15T09:24:16;99421.28;;;12.07;93.37
20755;BME280;26385;48.470;7.938;2022-11-15T09:26:42;99427.28;;;11.92;94.86
20755;BME280;26385;48.470;7.938;2022-11-15T09:29:07;99423.03;;;12.06;94.51
20755;BME280;26385;48.470;7.938;2022-11-15T09:31:32;99429.91;;;12.00;95.25
20755;BME280;26385;48.470;7.938;2022-11-15T09:33:58;99435.06;;;11.94;95.46
20755;BME280;26385;48.470;7.938;2022-11-15T09:36:23;99435.09;;;11.97;95.02
20755;BME280;26385;48.470;7.938;2022-11-15T09:38:49;99441.19;;;12.09;94.63
20755;BME280;26385;48.470;7.938;2022-11-15T09:43:50;99441.22;;;12.16;93.15
20755;BME280;26385;48.470;7.938;2022-11-15T09:49:08;99442.09;;;12.25;92.98
20755;BME280;26385;48.470;7.938;2022-11-15T09:51:53;99445.59;;;12.29;93.85
20755;BME280;26385;48.470;7.938;2022-11-15T09:54:31;99439.53;;;12.31;92.63
20755;BME280;26385;48.470;7.938;2022-11-15T09:57:09;99432.56;;;12.23;93.78
20755;BME280;26385;48.470;7.938;2022-11-15T09:59:43;99433.47;;;12.34;93.92
20755;BME280;26385;48.470;7.938;2022-11-15T10:02:30;99429.16;;;12.48;91.92
20755;BME280;26385;48.470;7.938;2022-11-15T10:04:59;99425.69;;;12.46;92.07
20755;BME280;26385;48.470;7.938;2022-11-15T10:07:48;99423.09;;;12.48;92.30
20755;BME280;26385;48.470;7.938;2022-11-15T10:10:27;99416.19;;;12.70;91.27
20755;BME280;26385;48.470;7.938;2022-11-15T10:12:55;99414.44;;;12.68;92.09
20755;BME280;26385;48.470;7.938;2022-11-15T10:15:20;99398.84;;;12.76;92.01
20755;BME280;26385;48.470;7.938;2022-11-15T10:18:12;99396.25;;;12.81;90.99
20755;BME280;26385;48.470;7.938;2022-11-15T10:20:51;99393.66;;;12.79;90.45
20755;BME280;26385;48.470;7.938;2022-11-15T10:23:20;99391.91;;;12.83;91.17
20755;BME280;26385;48.470;7.938;2022-11-15T10:25:46;99388.44;;;12.93;90.81
20755;BME280;26385;48.470;7.938;2022-11-15T10:28:16;99385.84;;;13.01;90.77
20755;BME280;26385;48.470;7.938;2022-11-15T10:30:51;99379.78;;;13.03;90.84
20755;BME280;26385;48.470;7.938;2022-11-15T10:33:34;99371.13;;;12.93;91.80
20755;BME280;26385;48.470;7.938;2022-11-15T10:44:17;99357.25;;;12.91;90.92
20755;BME280;26385;48.470;7.938;2022-11-15T10:47:05;99348.59;;;13.05;90.74
20755;BME280;26385;48.470;7.938;2022-11-15T10:49:32;99341.66;;;12.99;90.43
20755;BME280;26385;48.470;7.938;2022-11-15T10:54:36;99331.22;;;13.08;90.66
20755;BME280;26385;48.470;7.938;2022-11-15T10:57:33;99317.34;;;13.15;89.53
20755;BME280;26385;48.470;7.938;2022-11-15T11:00:05;99313.03;;;13.14;90.36
20755;BME280;26385;48.470;7.938;2022-11-15T11:02:39;99304.34;;;13.17;91.14
20755;BME280;26385;48.470;7.938;2022-11-15T11:05:28;99304.31;;;13.18;90.51
20755;BME280;26385;48.470;7.938;2022-11-15T11:08:19;99309.66;;;12.86;92.25
20755;BME280;26385;48.470;7.938;2022-11-15T11:10:53;99294.88;;;12.94;93.53
20755;BME280;26385;48.470;7.938;2022-11-15T11:13:27;99291.38;;;13.06;92.22
20755;BME280;26385;48.470;7.938;2022-11-15T11:21:20;99293.16;;;12.96;90.81
20755;BME280;26385;48.470;7.938;2022-11-15T11:23:54;99291.41;;;13.03;90.62
20755;BME280;26385;48.470;7.938;2022-11-15T11:26:43;99280.09;;;13.12;89.42
20755;BME280;26385;48.470;7.938;2022-11-15T11:29:36;99278.44;;;12.91;89.99
20755;BME280;26385;48.470;7.938;2022-11-15T11:37:55;99270.53;;;13.18;90.84
20755;BME280;26385;48.470;7.938;2022-11-15T11:40:41;99274.88;;;13.22;89.61
20755;BME280;26385;48.470;7.938;2022-11-15T11:48:40;99267.00;;;13.39;93.64
20755;BME280;26385;48.470;7.938;2022-11-15T11:51:22;99252.13;;;13.61;90.93
20755;BME280;26385;48.470;7.938;2022-11-15T11:54:06;99244.94;;;13.98;91.53
20755;BME280;26385;48.470;7.938;2022-11-15T11:56:39;99249.06;;;14.24;86.60
20755;BME280;26385;48.470;7.938;2022-11-15T11:59:15;99243.66;;;14.48;86.73
20755;BME280;26385;48.470;7.938;2022-11-15T12:01:43;99226.13;;;14.64;84.62
20755;BME280;26385;48.470;7.938;2022-11-15T12:04:19;99229.50;;;14.71;85.02
20755;BME280;26385;48.470;7.938;2022-11-15T12:06:59;99227.63;;;14.85;84.28
20755;BME280;26385;48.470;7.938;2022-11-15T12:09:46;99220.59;;;14.91;83.80
20755;BME280;26385;48.470;7.938;2022-11-15T12:12:23;99199.53;;;15.07;83.72
20755;BME280;26385;48.470;7.938;2022-11-15T12:14:57;99200.28;;;15.16;83.39
20755;BME280;26385;48.470;7.938;2022-11-15T12:17:29;99187.09;;;15.26;82.06
20755;BME280;26385;48.470;7.938;2022-11-15T12:20:05;99183.44;;;15.37;80.90
20755;BME280;26385;48.470;7.938;2022-11-15T12:22:47;99184.34;;;15.36;81.33
20755;BME280;26385;48.470;7.938;2022-11-15T12:25:29;99172.03;;;15.47;80.89
20755;BME280;26385;48.470;7.938;2022-11-15T12:30:38;99150.91;;;15.64;78.71
20755;BME280;26385;48.470;7.938;2022-11-15T12:33:30;99148.16;;;15.73;76.74
20755;BME280;26385;48.470;7.938;2022-11-15T12:36:09;99146.47;;;15.69;75.90
20755;BME280;26385;48.470;7.938;2022-11-15T12:38:57;99142.25;;;15.61;76.48
20755;BME280;26385;48.470;7.938;2022-11-15T12:44:12;99128.28;;;15.65;76.44
20755;BME280;26385;48.470;7.938;2022-11-15T13:02:23;99093.78;;;14.86;79.47
20755;BME280;26385;48.470;7.938;2022-11-15T13:04:50;99100.97;;;14.69;80.89
20755;BME280;26385;48.470;7.938;2022-11-15T13:09:59;99093.09;;;14.73;79.81
20755;BME280;26385;48.470;7.938;2022-11-15T13:14:54;99087.91;;;14.70;81.25
20755;BME280;26385;48.470;7.938;2022-11-15T13:17:23;99084.38;;;14.76;81.96
20755;BME280;26385;48.470;7.938;2022-11-15T13:20:01;99079.34;;;14.63;83.04
20755;BME280;26385;48.470;7.938;2022-11-15T13:22:28;99084.53;;;14.63;83.07
20755;BME280;26385;48.470;7.938;2022-11-15T13:30:50;99067.28;;;14.53;83.69
20755;BME280;26385;48.470;7.938;2022-11-15T13:33:18;99063.81;;;14.53;83.98
20755;BME280;26385;48.470;7.938;2022-11-15T13:36:26;99064.78;;;14.47;84.78
20755;BME280;26385;48.470;7.938;2022-11-15T13:39:03;99060.41;;;14.45;85.28
20755;BME280;26385;48.470;7.938;2022-11-15T13:41:33;99069.19;;;14.39;85.70
20755;BME280;26385;48.470;7.938;2022-11-15T13:44:00;99060.53;;;14.35;86.31
20755;BME280;26385;48.470;7.938;2022-11-15T13:46:31;99068.31;;;14.39;86.94
20755;BME280;26385;48.470;7.938;2022-11-15T13:49:07;99053.53;;;14.37;87.38
20755;BME280;26385;48.470;7.938;2022-11-15T13:51:36;99044.25;;;14.18;88.45
20755;BME280;26385;48.470;7.938;2022-11-15T13:56:34;99038.19;;;14.16;88.46
20755;BME280;26385;48.470;7.938;2022-11-15T13:59:08;99032.94;;;14.19;88.49
20755;BME280;26385;48.470;7.938;2022-11-15T14:01:34;99027.69;;;14.24;87.99
20755;BME280;26385;48.470;7.938;2022-11-15T14:04:00;99024.25;;;14.20;88.33
20755;BME280;26385;48.470;7.938;2022-11-15T14:06:28;99015.66;;;14.14;88.12
20755;BME280;26385;48.470;7.938;2022-11-15T14:09:04;99013.88;;;14.17;88.22
20755;BME280;26385;48.470;7.938;2022-11-15T14:11:55;99014.75;;;14.16;88.62
20755;BME280;26385;48.470;7.938;2022-11-15T14:14:25;99007.75;;;14.20;88.31
20755;BME280;26385;48.470;7.938;2022-11-15T14:16:56;99013.84;;;14.19;88.86
20755;BME280;26385;48.470;7.938;2022-11-15T14:22:14;99006.22;;;14.06;88.62
20755;BME280;26385;48.470;7.938;2022-11-15T14:24:41;99007.03;;;14.08;88.17
20755;BME280;26385;48.470;7.938;2022-11-15T14:27:24;98986.34;;;13.98;87.29
20755;BME280;26385;48.470;7.938;2022-11-15T14:29:50;98979.25;;;14.11;85.65
20755;BME280;26385;48.470;7.938;2022-11-15T14:34:46;98972.53;;;13.93;87.22
20755;BME280;26385;48.470;7.938;2022-11-15T14:37:27;98970.75;;;13.95;86.54
20755;BME280;26385;48.470;7.938;2022-11-15T14:39:53;98965.47;;;14.01;85.90
20755;BME280;26385;48.470;7.938;2022-11-15T14:42:21;98950.72;;;14.01;85.70
20755;BME280;26385;48.470;7.938;2022-11-15T14:44:46;98953.34;;;14.00;85.70
20755;BME280;26385;48.470;7.938;2022-11-15T14:47:12;98954.13;;;14.06;85.49
20755;BME280;26385;48.470;7.938;2022-11-15T14:49:37;98948.06;;;14.06;86.05
20755;BME280;26385;48.470;7.938;2022-11-15T14:52:28;98955.06;;;14.01;87.03
20755;BME280;26385;48.470;7.938;2022-11-15T14:54:53;98941.19;;;14.00;87.09